createdAt,value
2022-10-11T00:01:09.357Z,5.07
2022-10-11T00:03:38.355Z,5.00
2022-10-11T00:06:09.242Z,5.00
2022-10-11T00:08:38.173Z,5.10
2022-10-11T00:11:08.749Z,4.57
2022-10-11T00:13:37.657Z,5.35
2022-10-11T00:16:11.288Z,5.30
2022-10-11T00:18:40.621Z,5.45
2022-10-11T00:21:10.878Z,5.55
2022-10-11T00:23:40.266Z,5.40
2022-10-11T00:26:10.423Z,4.95
2022-10-11T00:28:39.374Z,5.10
2022-10-11T00:31:11.164Z,4.63
2022-10-11T00:33:39.773Z,5.22
2022-10-11T00:36:09.757Z,5.53
2022-10-11T00:38:38.844Z,4.43
2022-10-11T00:41:08.146Z,5.20
2022-10-11T00:43:37.413Z,4.80
2022-10-11T00:46:26.289Z,5.30
2022-10-11T00:48:58.685Z,4.68
2022-10-11T00:51:37.774Z,5.10
2022-10-11T00:54:09.073Z,4.45
2022-10-11T00:56:39.894Z,5.95
2022-10-11T00:59:13.836Z,5.43
2022-10-11T01:01:44.133Z,5.20
2022-10-11T01:04:12.863Z,5.68
2022-10-11T01:06:42.704Z,5.78
2022-10-11T01:09:12.368Z,5.85
2022-10-11T01:11:43.802Z,5.68
2022-10-11T01:14:34.389Z,5.65
2022-10-11T01:17:15.069Z,5.53
2022-10-11T01:19:56.284Z,5.65
2022-10-11T01:22:50.208Z,5.50
2022-10-11T01:25:28.220Z,5.80
2022-10-11T01:28:27.924Z,5.80
2022-10-11T01:31:06.142Z,6.15
2022-10-11T01:33:40.222Z,6.28
2022-10-11T01:36:17.931Z,6.43
2022-10-11T01:38:52.088Z,6.05
2022-10-11T01:41:26.878Z,6.38
2022-10-11T01:44:00.177Z,6.10
2022-10-11T01:46:32.161Z,5.47
2022-10-11T01:49:03.846Z,6.00
2022-10-11T01:51:35.874Z,5.68
2022-10-11T01:54:56.945Z,5.30
2022-10-11T01:57:52.620Z,5.78
2022-10-11T02:00:24.003Z,5.95
2022-10-11T02:03:09.796Z,6.35
2022-10-11T02:05:46.743Z,6.90
2022-10-11T02:08:21.999Z,6.28
2022-10-11T02:10:55.932Z,6.35
2022-10-11T02:13:31.656Z,5.78
2022-10-11T02:16:03.730Z,5.68
2022-10-11T02:18:38.584Z,5.93
2022-10-11T02:21:10.310Z,6.25
2022-10-11T02:23:44.174Z,6.05
2022-10-11T02:26:13.895Z,5.88
2022-10-11T02:28:45.497Z,6.55
2022-10-11T02:31:17.937Z,5.25
2022-10-11T02:33:56.964Z,5.88
2022-10-11T02:36:33.299Z,5.78
2022-10-11T02:39:08.851Z,5.82
2022-10-11T02:41:40.626Z,6.03
2022-10-11T02:44:13.881Z,5.82
2022-10-11T02:46:45.328Z,5.97
2022-10-11T02:49:16.873Z,6.22
2022-10-11T02:51:45.790Z,6.30
2022-10-11T02:54:14.593Z,5.85
2022-10-11T02:56:43.218Z,5.55
2022-10-11T02:59:11.873Z,5.63
2022-10-11T03:01:40.543Z,5.85
2022-10-11T03:04:09.559Z,5.35
2022-10-11T03:06:39.527Z,6.32
2022-10-11T03:09:08.287Z,6.10
2022-10-11T03:11:36.950Z,6.35
2022-10-11T03:14:05.667Z,6.07
2022-10-11T03:16:34.340Z,5.85
2022-10-11T03:19:03.447Z,5.85
2022-10-11T03:21:32.231Z,5.43
2022-10-11T03:24:02.078Z,5.70
2022-10-11T03:26:30.990Z,5.85
2022-10-11T03:28:59.610Z,6.30
2022-10-11T03:31:28.560Z,6.90
2022-10-11T03:33:57.134Z,6.75
2022-10-11T03:36:28.658Z,6.35
2022-10-11T03:38:57.341Z,6.30
2022-10-11T03:41:27.308Z,6.50
2022-10-11T03:43:55.922Z,6.35
2022-10-11T03:46:24.530Z,6.72
2022-10-11T03:48:53.093Z,6.13
2022-10-11T03:51:21.761Z,6.90
2022-10-11T03:53:50.454Z,6.85
2022-10-11T03:56:18.947Z,6.50
2022-10-11T03:58:49.016Z,7.07
2022-10-11T04:01:19.533Z,6.10
2022-10-11T04:03:48.480Z,6.22
2022-10-11T04:06:17.194Z,6.05
2022-10-11T04:08:45.650Z,5.95
2022-10-11T04:11:14.374Z,6.57
2022-10-11T04:13:43.126Z,6.47
2022-10-11T04:16:13.968Z,6.88
2022-10-11T04:18:43.323Z,6.43
2022-10-11T04:21:14.449Z,6.53
2022-10-11T04:23:43.314Z,6.70
2022-10-11T04:26:12.037Z,5.85
2022-10-11T04:28:40.750Z,6.07
2022-10-11T04:31:12.666Z,5.55
2022-10-11T04:33:41.391Z,5.82
2022-10-11T04:36:10.211Z,6.28
2022-10-11T04:38:38.817Z,6.35
2022-10-11T04:41:08.721Z,6.82
2022-10-11T04:43:38.012Z,6.82
2022-10-11T04:46:07.474Z,6.53
2022-10-11T04:48:37.833Z,7.35
2022-10-11T04:51:07.451Z,6.43
2022-10-11T04:53:36.552Z,7.25
2022-10-11T04:56:08.528Z,7.82
2022-10-11T04:58:37.986Z,7.57
2022-10-11T05:01:06.781Z,7.32
2022-10-11T05:03:40.780Z,6.72
2022-10-11T05:06:10.097Z,6.15
2022-10-11T05:08:41.869Z,6.88
2022-10-11T05:11:17.137Z,7.03
2022-10-11T05:13:46.342Z,7.93
2022-10-11T05:16:18.774Z,8.75
2022-10-11T05:21:20.044Z,8.80
2022-10-11T05:23:50.702Z,8.68
2022-10-11T05:26:20.862Z,8.43
2022-10-11T05:28:49.827Z,8.02
2022-10-11T05:31:18.708Z,8.80
2022-10-11T05:33:49.573Z,6.90
2022-10-11T05:36:18.430Z,8.25
2022-10-11T05:38:47.092Z,8.60
2022-10-11T05:41:16.728Z,10.35
2022-10-11T05:43:46.299Z,10.38
2022-10-11T05:46:15.006Z,10.93
2022-10-11T05:48:43.876Z,10.63
2022-10-11T05:51:14.464Z,8.63
2022-10-11T05:53:43.057Z,7.95
2022-10-11T05:56:22.008Z,7.65
2022-10-11T05:58:51.129Z,7.53
2022-10-11T06:01:21.752Z,7.55
2022-10-11T06:03:50.553Z,6.97
2022-10-11T06:06:21.649Z,6.90
2022-10-11T06:08:50.679Z,6.32
2022-10-11T06:11:21.846Z,6.35
2022-10-11T06:13:55.486Z,5.78
2022-10-11T06:16:27.064Z,6.95
2022-10-11T06:18:56.499Z,6.72
2022-10-11T06:21:26.896Z,6.88
2022-10-11T06:24:01.123Z,6.18
2022-10-11T06:26:30.516Z,7.47
2022-10-11T06:28:59.307Z,6.82
2022-10-11T06:31:28.073Z,6.57
2022-10-11T06:33:57.341Z,6.50
2022-10-11T06:36:28.108Z,6.50
2022-10-11T06:38:57.319Z,6.20
2022-10-11T06:41:27.489Z,6.32
2022-10-11T06:43:57.517Z,6.45
2022-10-11T06:46:28.377Z,6.50
2022-10-11T06:48:57.864Z,5.93
2022-10-11T06:51:30.374Z,6.72
2022-10-11T06:54:02.019Z,6.50
2022-10-11T06:56:31.812Z,6.35
2022-10-11T06:59:01.577Z,6.57
2022-10-11T07:01:30.251Z,6.20
2022-10-11T07:04:00.871Z,6.53
2022-10-11T07:06:32.004Z,7.50
2022-10-11T07:09:02.049Z,7.50
2022-10-11T07:11:31.055Z,7.53
2022-10-11T07:14:01.223Z,7.00
2022-10-11T07:16:30.125Z,6.28
2022-10-11T07:19:01.216Z,6.85
2022-10-11T07:21:33.563Z,6.32
2022-10-11T07:24:02.753Z,6.13
2022-10-11T07:26:38.170Z,7.07
2022-10-11T07:29:08.425Z,7.32
2022-10-11T07:31:39.108Z,6.90
2022-10-11T07:34:07.494Z,6.78
2022-10-11T07:36:37.524Z,6.47
2022-10-11T07:39:08.500Z,7.05
2022-10-11T07:41:43.145Z,6.88
2022-10-11T07:44:14.520Z,6.30
2022-10-11T07:46:43.145Z,6.05
2022-10-11T07:49:11.889Z,6.68
2022-10-11T07:51:41.772Z,6.30
2022-10-11T07:54:11.403Z,6.03
2022-10-11T07:56:40.604Z,6.75
2022-10-11T07:59:09.113Z,6.72
2022-10-11T08:01:37.875Z,6.55
2022-10-11T08:04:06.867Z,6.05
2022-10-11T08:06:36.733Z,6.20
2022-10-11T08:09:06.949Z,6.82
2022-10-11T08:11:37.665Z,6.25
2022-10-11T08:14:11.459Z,6.27
2022-10-11T08:16:41.074Z,6.85
2022-10-11T08:19:09.738Z,7.55
2022-10-11T08:21:38.478Z,6.00
2022-10-11T08:24:09.450Z,6.63
2022-10-11T08:26:38.077Z,6.13
2022-10-11T08:29:07.368Z,6.40
2022-10-11T08:31:36.165Z,5.90
2022-10-11T08:34:04.947Z,5.95
2022-10-11T08:36:33.764Z,5.60
2022-10-11T08:39:02.976Z,5.93
2022-10-11T08:41:40.745Z,5.90
2022-10-11T08:44:22.235Z,5.68
2022-10-11T08:47:00.540Z,6.10
2022-10-11T08:49:34.646Z,5.90
2022-10-11T08:52:07.300Z,6.53
2022-10-11T08:54:49.598Z,5.78
2022-10-11T08:59:52.997Z,5.90
2022-10-11T09:05:18.079Z,5.00
2022-10-11T09:07:57.841Z,6.03
2022-10-11T09:10:59.188Z,6.22
2022-10-11T09:13:46.011Z,5.47
2022-10-11T09:16:26.685Z,6.38
2022-10-11T09:19:16.938Z,7.15
2022-10-11T09:21:53.602Z,7.25
2022-10-11T09:24:48.615Z,6.75
2022-10-11T09:27:37.864Z,6.45
2022-10-11T09:30:16.586Z,6.43
2022-10-11T09:32:49.482Z,6.25
2022-10-11T09:35:20.534Z,5.95
2022-10-11T09:37:59.255Z,5.32
2022-10-11T09:40:40.559Z,5.95
2022-10-11T09:43:10.569Z,6.07
2022-10-11T09:45:49.209Z,6.15
2022-10-11T09:48:22.152Z,5.65
2022-10-11T09:50:53.205Z,5.97
2022-10-11T09:53:23.054Z,5.97
2022-10-11T09:55:55.369Z,5.57
2022-10-11T09:58:30.762Z,5.18
2022-10-11T10:01:07.882Z,5.65
2022-10-11T10:03:38.629Z,5.65
2022-10-11T10:06:10.436Z,5.03
2022-10-11T10:11:09.735Z,5.32
2022-10-11T10:13:44.829Z,5.28
2022-10-11T10:16:27.279Z,4.97
2022-10-11T10:18:58.453Z,4.75
2022-10-11T10:21:29.901Z,5.17
2022-10-11T10:24:00.326Z,5.28
2022-10-11T10:26:28.942Z,4.70
2022-10-11T10:29:05.090Z,5.07
2022-10-11T10:32:02.053Z,4.72
2022-10-11T10:34:31.924Z,5.15
2022-10-11T10:39:40.861Z,5.57
2022-10-11T10:42:16.396Z,4.68
2022-10-11T10:44:48.732Z,4.13
2022-10-11T10:47:29.841Z,4.32
2022-10-11T10:50:03.935Z,4.32
2022-10-11T10:52:50.511Z,4.43
2022-10-11T10:55:26.212Z,3.80
2022-10-11T10:58:05.825Z,4.60
2022-10-11T11:00:43.608Z,4.72
2022-10-11T11:03:22.812Z,4.53
2022-10-11T11:06:02.499Z,4.22
2022-10-11T11:08:51.027Z,4.20
2022-10-11T11:11:42.479Z,4.28
2022-10-11T11:14:24.457Z,4.40
2022-10-11T11:17:01.293Z,3.35
2022-10-11T11:19:42.102Z,3.30
2022-10-11T11:22:19.020Z,3.45
2022-10-11T11:24:59.953Z,3.15
2022-10-11T11:27:45.435Z,2.75
2022-10-11T11:30:20.595Z,2.60
2022-10-11T11:32:59.009Z,2.90
2022-10-11T11:35:35.782Z,2.70
2022-10-11T11:38:12.744Z,3.25
2022-10-11T11:40:44.233Z,2.35
2022-10-11T11:43:22.231Z,2.30
2022-10-11T11:45:56.672Z,2.53
2022-10-11T11:48:26.857Z,2.50
2022-10-11T11:51:03.058Z,2.10
2022-10-11T11:53:54.882Z,2.08
2022-10-11T11:56:30.862Z,2.20
2022-10-11T11:59:08.242Z,2.15
2022-10-11T12:01:44.318Z,2.22
2022-10-11T12:04:27.025Z,2.50
2022-10-11T12:07:17.853Z,2.50
2022-10-11T12:09:53.075Z,2.88
2022-10-11T12:12:31.733Z,2.35
2022-10-11T12:15:13.395Z,2.10
2022-10-11T12:18:04.599Z,2.20
2022-10-11T12:20:37.231Z,1.70
2022-10-11T12:23:40.769Z,1.88
2022-10-11T12:26:37.804Z,1.98
2022-10-11T12:29:28.838Z,1.60
2022-10-11T12:32:27.751Z,1.98
2022-10-11T12:35:29.794Z,1.75
2022-10-11T12:38:15.747Z,1.60
2022-10-11T12:40:47.374Z,1.70
2022-10-11T12:43:31.812Z,1.98
2022-10-11T12:46:33.406Z,1.85
2022-10-11T12:49:15.809Z,1.67
2022-10-11T12:51:54.530Z,2.00
2022-10-11T12:54:47.038Z,1.63
2022-10-11T12:57:46.492Z,1.58
2022-10-11T13:00:23.839Z,1.92
2022-10-11T13:02:53.109Z,2.13
2022-10-11T13:05:27.316Z,1.38
2022-10-11T13:07:58.896Z,1.25
2022-10-11T13:10:38.414Z,1.67
2022-10-11T13:13:11.238Z,1.50
2022-10-11T13:15:43.539Z,1.30
2022-10-11T13:18:15.762Z,1.63
2022-10-11T13:20:45.230Z,1.42
2022-10-11T13:23:23.536Z,1.40
2022-10-11T13:25:54.820Z,1.45
2022-10-11T13:28:24.722Z,1.27
2022-10-11T13:30:56.357Z,1.60
2022-10-11T13:33:32.234Z,1.58
2022-10-11T13:36:02.102Z,1.38
2022-10-11T13:38:33.096Z,1.70
2022-10-11T13:41:06.584Z,1.43
2022-10-11T13:43:35.673Z,1.60
2022-10-11T13:46:06.217Z,1.38
2022-10-11T13:48:41.502Z,1.55
2022-10-11T13:51:17.089Z,1.40
2022-10-11T13:53:59.764Z,1.73
2022-10-11T13:56:32.918Z,1.63
2022-10-11T13:59:02.091Z,1.27
2022-10-11T14:01:39.744Z,1.40
2022-10-11T14:04:10.224Z,1.40
2022-10-11T14:06:45.489Z,1.10
2022-10-11T14:09:23.590Z,1.48
2022-10-11T14:11:53.830Z,1.35
2022-10-11T14:14:42.194Z,1.13
2022-10-11T14:17:17.381Z,1.20
2022-10-11T14:19:47.492Z,1.42
2022-10-11T14:22:17.802Z,1.33
2022-10-11T14:24:49.200Z,1.27
2022-10-11T14:27:24.128Z,1.40
2022-10-11T14:30:20.291Z,1.48
2022-10-11T14:32:42.502Z,1.48
2022-10-11T14:35:16.870Z,1.70
2022-10-11T14:37:46.194Z,1.50
2022-10-11T14:40:17.928Z,1.48
2022-10-11T14:45:16.312Z,1.50
2022-10-11T14:47:45.724Z,1.55
2022-10-11T14:50:36.615Z,1.50
2022-10-11T14:53:05.959Z,1.50
2022-10-11T14:55:35.763Z,1.42
2022-10-11T14:58:07.419Z,1.80
2022-10-11T15:00:36.818Z,1.33
2022-10-11T15:03:07.327Z,1.25
2022-10-11T15:05:36.467Z,1.48
2022-10-11T15:08:06.464Z,1.75
2022-10-11T15:10:38.317Z,1.50
2022-10-11T15:13:08.670Z,1.45
2022-10-11T15:15:41.061Z,1.50
2022-10-11T15:18:13.535Z,1.35
2022-10-11T15:20:43.895Z,1.67
2022-10-11T15:23:13.114Z,2.00
2022-10-11T15:25:43.099Z,2.30
2022-10-11T15:28:21.942Z,1.70
2022-10-11T15:30:50.630Z,1.75
2022-10-11T15:33:19.302Z,2.17
2022-10-11T15:35:49.838Z,2.10
2022-10-11T15:38:20.503Z,1.85
2022-10-11T15:40:51.487Z,1.85
2022-10-11T15:43:24.703Z,2.87
2022-10-11T15:45:53.464Z,3.00
2022-10-11T15:48:26.447Z,2.90
2022-10-11T15:50:55.688Z,3.53
2022-10-11T15:53:26.374Z,3.45
2022-10-11T15:55:57.910Z,3.83
2022-10-11T15:58:30.337Z,4.47
2022-10-11T16:01:02.757Z,5.05
2022-10-11T16:03:32.038Z,5.40
2022-10-11T16:06:05.204Z,5.47
2022-10-11T16:08:35.265Z,4.78
2022-10-11T16:11:04.348Z,4.25
2022-10-11T16:13:34.709Z,4.05
2022-10-11T16:16:04.133Z,4.20
2022-10-11T16:18:35.666Z,4.03
2022-10-11T16:23:36.824Z,3.92
2022-10-11T16:26:09.381Z,3.92
2022-10-11T16:28:42.170Z,4.53
2022-10-11T16:31:11.892Z,4.20
2022-10-11T16:33:46.110Z,5.57
2022-10-11T16:36:38.926Z,4.22
2022-10-11T16:39:10.567Z,4.10
2022-10-11T16:41:39.500Z,4.20
2022-10-11T16:44:12.761Z,4.88
2022-10-11T16:46:41.436Z,5.55
2022-10-11T16:49:10.183Z,6.55
2022-10-11T16:51:41.569Z,6.40
2022-10-11T16:54:10.570Z,6.93
2022-10-11T16:56:40.174Z,6.95
2022-10-11T16:59:10.456Z,6.55
2022-10-11T17:01:39.414Z,6.25
2022-10-11T17:04:08.163Z,5.55
2022-10-11T17:06:36.829Z,5.57
2022-10-11T17:09:06.909Z,6.35
2022-10-11T17:11:35.624Z,5.13
2022-10-11T17:14:06.227Z,5.38
2022-10-11T17:16:36.806Z,5.53
2022-10-11T17:19:06.018Z,5.55
2022-10-11T17:21:34.636Z,5.53
2022-10-11T17:24:03.771Z,5.45
2022-10-11T17:26:33.369Z,4.60
2022-10-11T17:29:03.651Z,4.65
2022-10-11T17:31:32.549Z,4.55
2022-10-11T17:34:02.557Z,4.90
2022-10-11T17:36:34.899Z,4.68
2022-10-11T17:39:06.624Z,4.75
2022-10-11T17:41:35.704Z,4.25
2022-10-11T17:44:05.532Z,5.38
2022-10-11T17:46:34.021Z,5.03
2022-10-11T17:49:08.435Z,4.95
2022-10-11T17:51:38.584Z,5.10
2022-10-11T17:54:12.411Z,5.53
2022-10-11T17:56:42.640Z,7.22
2022-10-11T17:59:17.013Z,10.85
2022-10-11T18:01:47.183Z,10.75
2022-10-11T18:04:17.905Z,10.23
2022-10-11T18:06:47.996Z,12.93
2022-10-11T18:09:19.572Z,14.20
2022-10-11T18:11:48.685Z,14.57
2022-10-11T18:14:17.622Z,17.75
2022-10-11T18:16:46.646Z,16.67
2022-10-11T18:19:17.842Z,14.30
2022-10-11T18:21:46.614Z,13.35
2022-10-11T18:24:17.076Z,12.52
2022-10-11T18:26:46.690Z,11.65
2022-10-11T18:29:15.507Z,11.07
2022-10-11T18:31:44.539Z,9.10
2022-10-11T18:34:14.370Z,9.30
2022-10-11T18:36:44.565Z,9.57
2022-10-11T18:39:16.521Z,8.57
2022-10-11T18:41:45.537Z,8.88
2022-10-11T18:44:16.250Z,8.98
2022-10-11T18:46:45.024Z,8.57
2022-10-11T18:49:14.080Z,8.10
2022-10-11T18:51:44.299Z,9.90
2022-10-11T18:54:16.938Z,9.45
2022-10-11T18:56:50.883Z,9.90
2022-10-11T18:59:20.916Z,10.63
2022-10-11T19:01:52.322Z,12.38
2022-10-11T19:04:21.298Z,11.75
2022-10-11T19:06:52.795Z,10.82
2022-10-11T19:09:23.541Z,11.02
2022-10-11T19:11:53.078Z,11.65
2022-10-11T19:14:25.850Z,10.63
2022-10-11T19:16:55.642Z,12.27
2022-10-11T19:19:27.206Z,12.02
2022-10-11T19:21:58.067Z,12.02
2022-10-11T19:24:29.179Z,12.27
2022-10-11T19:27:02.354Z,14.13
2022-10-11T19:29:32.558Z,15.13
2022-10-11T19:32:03.868Z,16.50
2022-10-11T19:34:32.998Z,17.53
2022-10-11T19:37:04.231Z,15.02
2022-10-11T19:39:33.138Z,14.63
2022-10-11T19:42:01.978Z,14.18
2022-10-11T19:44:34.437Z,14.45
2022-10-11T19:47:06.326Z,14.85
2022-10-11T19:49:35.350Z,15.55
2022-10-11T19:52:05.468Z,14.07
2022-10-11T19:54:34.192Z,16.50
2022-10-11T19:57:02.846Z,15.82
2022-10-11T19:59:31.450Z,15.00
2022-10-11T20:02:00.807Z,14.88
2022-10-11T20:07:19.854Z,13.40
2022-10-11T20:09:48.783Z,13.10
2022-10-11T20:12:17.515Z,12.95
2022-10-11T20:14:46.238Z,11.80
2022-10-11T20:17:15.919Z,11.35
2022-10-11T20:19:44.604Z,10.55
2022-10-11T20:22:13.380Z,10.50
2022-10-11T20:24:43.718Z,11.38
2022-10-11T20:27:12.730Z,12.38
2022-10-11T20:29:41.186Z,12.50
2022-10-11T20:32:09.782Z,12.40
2022-10-11T20:34:39.727Z,11.82
2022-10-11T20:37:08.446Z,11.80
2022-10-11T20:39:38.152Z,13.02
2022-10-11T20:42:08.205Z,12.15
2022-10-11T20:44:37.340Z,12.48
2022-10-11T20:47:06.521Z,11.88
2022-10-11T20:49:35.927Z,10.55
2022-10-11T20:52:04.742Z,11.43
2022-10-11T20:54:34.899Z,11.13
2022-10-11T20:57:03.889Z,10.60
2022-10-11T20:59:34.363Z,10.70
2022-10-11T21:02:03.306Z,10.95
2022-10-11T21:04:32.870Z,12.32
2022-10-11T21:07:01.558Z,12.02
2022-10-11T21:09:30.319Z,12.02
2022-10-11T21:11:59.113Z,13.48
2022-10-11T21:14:28.327Z,12.65
2022-10-11T21:16:58.838Z,13.63
2022-10-11T21:19:27.804Z,14.68
2022-10-11T21:21:56.839Z,13.75
2022-10-11T21:24:25.777Z,12.35
2022-10-11T21:26:59.588Z,11.95
2022-10-11T21:29:29.335Z,12.25
2022-10-11T21:31:59.695Z,11.65
2022-10-11T21:34:28.762Z,12.57
2022-10-11T21:36:57.325Z,12.05
2022-10-11T21:39:26.419Z,9.75
2022-10-11T21:41:55.438Z,11.68
2022-10-11T21:44:24.274Z,11.90
2022-10-11T21:47:08.445Z,10.57
2022-10-11T21:49:41.517Z,10.73
2022-10-11T21:52:11.335Z,11.13
2022-10-11T21:54:40.090Z,9.27
2022-10-11T21:57:08.768Z,10.40
2022-10-11T21:59:37.766Z,10.75
2022-10-11T22:02:06.782Z,11.27
2022-10-11T22:04:35.930Z,9.55
2022-10-11T22:07:06.677Z,10.38
2022-10-11T22:09:36.548Z,10.30
2022-10-11T22:12:06.068Z,10.55
2022-10-11T22:14:34.785Z,10.40
2022-10-11T22:17:03.658Z,10.32
2022-10-11T22:19:32.337Z,9.55
2022-10-11T22:22:01.367Z,9.57
2022-10-11T22:24:32.719Z,9.73
2022-10-11T22:27:01.497Z,9.70
2022-10-11T22:29:34.048Z,9.85
2022-10-11T22:32:03.302Z,9.63
2022-10-11T22:34:32.900Z,9.70
2022-10-11T22:37:01.965Z,8.95
2022-10-11T22:39:32.528Z,8.60
2022-10-11T22:42:01.235Z,8.68
2022-10-11T22:44:30.040Z,8.82
2022-10-11T22:46:59.278Z,9.60
2022-10-11T22:49:28.020Z,8.27
2022-10-11T22:51:56.577Z,9.38
2022-10-11T22:54:25.215Z,9.45
2022-10-11T23:21:10.974Z,10.20
2022-10-11T23:23:39.970Z,9.98
2022-10-11T23:26:10.220Z,10.52
2022-10-11T23:28:39.167Z,11.10
2022-10-11T23:31:10.477Z,10.73
2022-10-11T23:33:39.052Z,9.55
2022-10-11T23:36:14.910Z,10.63
2022-10-11T23:38:45.296Z,11.00
2022-10-11T23:41:14.646Z,10.48
2022-10-11T23:43:43.621Z,10.82
2022-10-11T23:46:12.259Z,10.52
2022-10-11T23:48:40.894Z,10.00
2022-10-11T23:51:09.897Z,9.93
2022-10-11T23:53:39.017Z,9.98
2022-10-11T23:56:11.058Z,8.60
2022-10-11T23:58:40.040Z,9.35
